Time;durP1;ratioP1;P1;durP2;ratioP2;P2;SDS_P1;SDS_P2;PMS_P1;PMS_P2;Temp;Humidity;BMP_temperature;BMP_pressure;BME280_temperature;BME280_humidity;BME280_pressure;Samples;Min_cycle;Max_cycle;Signal;HPM_P1;HPM_P2
2022/04/04 00:01:05;;;;;;;6.67;4.50;;;4.60;99.90;;;;;;5038289;28;20203;-82
2022/04/04 00:03:30;;;;;;;5.47;4.60;;;4.50;99.90;;;;;;5037954;28;20178;-82
2022/04/04 00:05:57;;;;;;;6.50;3.73;;;4.40;99.90;;;;;;5037866;28;20182;-83
2022/04/04 00:08:22;;;;;;;6.87;3.70;;;4.40;99.90;;;;;;5055884;28;20184;-82
2022/04/04 00:10:48;;;;;;;8.00;4.30;;;4.40;99.90;;;;;;5038668;28;20460;-82
2022/04/04 00:13:14;;;;;;;6.37;4.00;;;4.40;99.90;;;;;;5056041;28;20667;-82
2022/04/04 00:15:40;;;;;;;7.00;3.40;;;4.30;99.90;;;;;;5037966;28;20218;-82
2022/04/04 00:18:07;;;;;;;6.80;4.00;;;4.30;99.90;;;;;;5037195;28;20189;-82
2022/04/04 00:20:32;;;;;;;5.03;3.70;;;4.30;99.90;;;;;;5055526;28;20414;-82
2022/04/04 00:22:58;;;;;;;5.90;3.90;;;4.30;99.90;;;;;;5055733;28;20984;-82
2022/04/04 00:25:24;;;;;;;6.30;3.90;;;4.30;99.90;;;;;;5055737;28;20181;-82
2022/04/04 00:27:50;;;;;;;4.07;3.17;;;4.30;99.90;;;;;;5055135;28;20180;-82
2022/04/04 00:30:16;;;;;;;5.10;3.47;;;4.30;99.90;;;;;;5055767;28;20258;-81
2022/04/04 00:32:42;;;;;;;7.57;4.10;;;4.30;99.90;;;;;;5038020;28;20455;-82
2022/04/04 00:35:08;;;;;;;4.00;2.70;;;4.20;99.90;;;;;;5055643;28;20187;-83
2022/04/04 00:37:34;;;;;;;7.53;3.47;;;4.10;99.90;;;;;;5054729;28;20207;-83
2022/04/04 00:40:00;;;;;;;5.73;3.60;;;4.20;99.90;;;;;;5037965;28;20262;-82
2022/04/04 00:42:25;;;;;;;6.33;4.03;;;4.20;99.90;;;;;;5037695;28;20525;-82
2022/04/04 00:44:51;;;;;;;5.50;4.20;;;4.10;99.90;;;;;;5055683;28;20912;-82
2022/04/04 00:47:17;;;;;;;6.67;3.70;;;4.10;99.90;;;;;;5036922;28;20577;-82
2022/04/04 00:49:43;;;;;;;6.20;4.20;;;4.00;99.90;;;;;;5037384;28;20187;-82
2022/04/04 00:52:08;;;;;;;6.00;4.00;;;4.00;99.90;;;;;;5055127;28;20492;-82
2022/04/04 00:54:34;;;;;;;5.50;3.77;;;4.00;99.90;;;;;;5037499;28;20241;-82
2022/04/04 00:57:01;;;;;;;4.27;3.70;;;4.00;99.90;;;;;;5036735;28;20210;-82
2022/04/04 00:59:27;;;;;;;5.47;4.17;;;4.00;99.90;;;;;;5037301;28;20233;-82
2022/04/04 01:01:53;;;;;;;5.10;3.67;;;3.90;99.90;;;;;;5055106;28;20433;-82
2022/04/04 01:04:18;;;;;;;6.60;3.93;;;3.90;99.90;;;;;;5037356;28;20413;-82
2022/04/04 01:06:44;;;;;;;5.07;3.57;;;3.80;99.90;;;;;;5036454;28;20179;-82
2022/04/04 01:09:16;;;;;;;6.07;3.83;;;3.80;99.90;;;;;;5055136;28;20178;-82
2022/04/04 01:12:08;;;;;;;5.83;3.97;;;3.80;99.90;;;;;;5055108;28;20214;-82
2022/04/04 01:14:38;;;;;;;10.10;4.67;;;3.80;99.90;;;;;;5037036;28;20449;-82
2022/04/04 01:17:05;;;;;;;5.40;4.13;;;3.70;99.90;;;;;;5036065;28;20461;-82
2022/04/04 01:19:31;;;;;;;6.30;4.73;;;3.70;99.90;;;;;;5054983;28;20852;-82
2022/04/04 01:21:57;;;;;;;6.40;4.37;;;3.70;99.90;;;;;;5054841;28;20519;-82
2022/04/04 01:24:24;;;;;;;8.10;4.80;;;3.70;99.90;;;;;;5036710;28;20182;-82
2022/04/04 01:26:51;;;;;;;6.60;4.33;;;3.70;99.90;;;;;;5054061;28;20418;-82
2022/04/04 01:29:19;;;;;;;6.70;4.60;;;3.70;99.90;;;;;;5054202;28;20418;-82
2022/04/04 01:31:45;;;;;;;7.43;5.13;;;3.60;99.90;;;;;;5054477;28;20453;-82
2022/04/04 01:34:10;;;;;;;7.03;4.53;;;3.60;99.90;;;;;;5036600;28;20421;-82
2022/04/04 01:36:36;;;;;;;8.33;5.87;;;3.50;99.90;;;;;;5053564;28;20199;-82
2022/04/04 01:39:02;;;;;;;6.50;5.10;;;3.50;99.90;;;;;;5036344;28;20176;-82
2022/04/04 01:41:28;;;;;;;7.17;5.23;;;3.50;99.90;;;;;;5054154;28;20591;-82
2022/04/04 01:43:54;;;;;;;8.03;5.73;;;3.40;99.90;;;;;;5036102;28;20507;-82
2022/04/04 01:46:26;;;;;;;9.97;5.50;;;3.40;99.90;;;;;;5054305;28;20179;-81
2022/04/04 01:48:54;;;;;;;8.70;5.77;;;3.40;99.90;;;;;;5053797;28;20156;-82
2022/04/04 01:51:20;;;;;;;7.30;4.73;;;3.50;99.90;;;;;;5035934;28;21055;-82
2022/04/04 01:53:46;;;;;;;7.83;4.77;;;3.50;99.90;;;;;;5054251;28;20459;-82
2022/04/04 01:56:12;;;;;;;5.40;4.80;;;3.50;99.90;;;;;;5035943;28;20464;-83
2022/04/04 01:58:39;;;;;;;7.33;4.83;;;3.50;99.90;;;;;;5035679;28;20182;-82
2022/04/04 02:01:18;;;;;;;7.77;5.07;;;3.50;99.90;;;;;;5035919;28;20476;-82
2022/04/04 02:03:47;;;;;;;8.43;4.90;;;3.50;99.90;;;;;;5036087;28;20420;-82
2022/04/04 02:06:13;;;;;;;10.07;5.27;;;3.50;99.90;;;;;;5035676;28;20907;-82
2022/04/04 02:08:40;;;;;;;11.10;5.67;;;3.50;99.90;;;;;;5035027;28;20428;-82
2022/04/04 02:11:07;;;;;;;9.53;4.80;;;3.50;99.90;;;;;;5035899;28;20899;-83
2022/04/04 02:13:32;;;;;;;7.53;6.20;;;3.50;99.90;;;;;;5036030;28;20420;-82
2022/04/04 02:16:03;;;;;;;10.13;5.97;;;3.40;99.90;;;;;;5035501;28;20457;-82
2022/04/04 02:18:30;;;;;;;10.27;6.77;;;3.40;99.90;;;;;;5053380;28;20232;-82
2022/04/04 02:20:56;;;;;;;8.83;5.70;;;3.40;99.90;;;;;;5035751;28;20442;-82
2022/04/04 02:23:22;;;;;;;9.87;5.97;;;3.40;99.90;;;;;;5053820;28;20420;-82
2022/04/04 02:25:49;;;;;;;10.37;6.70;;;3.40;99.90;;;;;;5053732;28;20412;-82
2022/04/04 02:28:16;;;;;;;8.00;6.23;;;3.40;99.90;;;;;;5035444;28;20425;-82
2022/04/04 02:30:45;;;;;;;8.40;6.37;;;3.40;99.90;;;;;;5053769;28;20943;-82
2022/04/04 02:33:12;;;;;;;9.23;5.30;;;3.40;99.90;;;;;;5035978;28;20531;-82
2022/04/04 02:35:39;;;;;;;10.53;6.20;;;3.40;99.90;;;;;;5035900;28;20417;-82
2022/04/04 02:38:05;;;;;;;13.50;6.90;;;3.40;99.90;;;;;;5034412;28;20485;-82
2022/04/04 02:40:30;;;;;;;10.37;7.00;;;3.40;99.90;;;;;;5052798;28;20456;-82
2022/04/04 02:42:56;;;;;;;15.40;6.93;;;3.40;99.90;;;;;;5035106;28;20505;-82
2022/04/04 02:45:22;;;;;;;8.60;6.20;;;3.40;99.90;;;;;;5052748;28;20284;-82
2022/04/04 02:47:48;;;;;;;8.93;6.90;;;3.50;99.90;;;;;;5034430;28;20178;-82
2022/04/04 02:50:14;;;;;;;10.20;6.47;;;3.50;99.90;;;;;;5034938;28;20561;-82
2022/04/04 02:52:40;;;;;;;11.10;6.70;;;3.50;99.90;;;;;;5052475;28;20458;-82
2022/04/04 02:57:52;;;;;;;10.70;6.70;;;3.40;99.90;;;;;;5052421;28;20274;-82
2022/04/04 03:00:19;;;;;;;9.40;7.23;;;3.40;99.90;;;;;;5036666;28;20424;-82
2022/04/04 03:02:46;;;;;;;12.40;7.13;;;3.30;99.90;;;;;;5038899;28;20441;-82
2022/04/04 03:05:12;;;;;;;9.40;6.67;;;3.40;99.90;;;;;;5039110;28;20449;-82
2022/04/04 03:07:37;;;;;;;10.37;7.13;;;3.30;99.90;;;;;;5056323;28;20449;-82
2022/04/04 03:10:03;;;;;;;8.73;6.00;;;3.40;99.90;;;;;;5039173;28;20417;-82
2022/04/04 03:12:29;;;;;;;8.67;7.07;;;3.30;99.90;;;;;;5056608;28;20291;-82
2022/04/04 03:14:55;;;;;;;11.60;7.17;;;3.30;99.90;;;;;;5038808;28;20277;-82
2022/04/04 03:17:21;;;;;;;11.83;6.60;;;3.40;99.90;;;;;;5038023;28;20550;-82
2022/04/04 03:19:47;;;;;;;13.27;7.50;;;3.30;99.90;;;;;;5038414;28;20415;-82
2022/04/04 03:22:13;;;;;;;10.93;6.33;;;3.40;99.90;;;;;;5038399;28;20200;-82
2022/04/04 03:24:38;;;;;;;11.97;6.90;;;3.30;99.90;;;;;;5038699;28;20417;-83
2022/04/04 03:27:04;;;;;;;10.97;6.33;;;3.30;99.90;;;;;;5055848;28;20413;-82
2022/04/04 03:29:30;;;;;;;8.60;6.30;;;3.30;99.90;;;;;;5038174;28;20258;-82
2022/04/04 03:31:55;;;;;;;12.53;7.03;;;3.30;99.90;;;;;;5038444;28;20202;-82
2022/04/04 03:34:22;;;;;;;8.40;6.37;;;3.30;99.90;;;;;;5038198;28;20269;-82
2022/04/04 03:36:47;;;;;;;11.07;6.93;;;3.30;99.90;;;;;;5055327;28;20665;-82
2022/04/04 03:39:16;;;;;;;10.17;5.80;;;3.30;99.90;;;;;;5056134;28;20443;-82
2022/04/04 03:41:43;;;;;;;8.53;6.13;;;3.30;99.90;;;;;;5055874;28;20613;-82
2022/04/04 03:44:09;;;;;;;11.40;6.50;;;3.30;99.90;;;;;;5055851;28;20454;-82
2022/04/04 03:46:35;;;;;;;10.40;6.10;;;3.30;99.90;;;;;;5054985;28;20784;-82
2022/04/04 03:49:00;;;;;;;8.83;5.97;;;3.30;99.90;;;;;;5037675;28;20182;-82
2022/04/04 03:51:26;;;;;;;8.90;6.50;;;3.30;99.90;;;;;;5055162;28;20213;-82
2022/04/04 03:53:52;;;;;;;8.97;5.50;;;3.30;99.90;;;;;;5037628;28;20434;-82
2022/04/04 03:56:17;;;;;;;12.63;7.03;;;3.30;99.90;;;;;;5037267;28;20693;-81
2022/04/04 03:58:43;;;;;;;13.27;7.03;;;3.30;99.90;;;;;;5054974;28;20176;-82
2022/04/04 04:01:09;;;;;;;9.50;6.13;;;3.40;99.90;;;;;;5055209;28;20213;-82
2022/04/04 04:03:36;;;;;;;9.27;5.50;;;3.40;99.90;;;;;;5037566;28;20185;-82
2022/04/04 04:06:11;;;;;;;9.43;6.83;;;3.40;99.90;;;;;;5055347;28;20900;-82
2022/04/04 04:08:41;;;;;;;7.37;6.47;;;3.30;99.90;;;;;;5036689;28;20972;-82
2022/04/04 04:11:08;;;;;;;8.97;7.00;;;3.30;99.90;;;;;;5036533;28;20530;-82
2022/04/04 04:13:33;;;;;;;10.97;8.20;;;3.30;99.90;;;;;;5054962;28;20501;-82
2022/04/04 04:15:59;;;;;;;11.27;6.60;;;3.30;99.90;;;;;;5054939;28;20981;-82
2022/04/04 04:18:24;;;;;;;12.10;7.20;;;3.30;99.90;;;;;;5054198;28;20174;-82
2022/04/04 04:20:50;;;;;;;8.10;5.90;;;3.40;99.90;;;;;;5054599;28;20238;-82
2022/04/04 04:23:16;;;;;;;10.60;6.87;;;3.40;99.90;;;;;;5036746;28;20236;-82
2022/04/04 04:25:42;;;;;;;11.97;7.07;;;3.40;99.90;;;;;;5036710;28;20427;-82
2022/04/04 04:28:09;;;;;;;11.20;7.20;;;3.50;99.90;;;;;;5036328;28;20414;-82
2022/04/04 04:30:35;;;;;;;9.77;6.37;;;3.50;99.90;;;;;;5036378;28;20554;-83
2022/04/04 04:33:02;;;;;;;10.50;6.60;;;3.50;99.90;;;;;;5054451;28;20411;-82
2022/04/04 04:35:27;;;;;;;9.43;6.43;;;3.40;99.90;;;;;;5036200;28;20936;-82
2022/04/04 04:37:54;;;;;;;12.53;7.10;;;3.50;99.90;;;;;;5053657;28;20550;-83
2022/04/04 04:40:20;;;;;;;9.77;6.20;;;3.40;99.90;;;;;;5055395;28;20172;-82
2022/04/04 04:42:47;;;;;;;13.43;6.93;;;3.40;99.90;;;;;;5038229;28;20452;-82
2022/04/04 04:45:13;;;;;;;12.50;7.13;;;3.40;99.90;;;;;;5037985;28;20417;-82
2022/04/04 04:47:40;;;;;;;12.70;5.90;;;3.30;99.90;;;;;;5055523;28;20420;-83
2022/04/04 04:50:06;;;;;;;8.80;6.03;;;3.30;99.90;;;;;;5037412;28;20781;-82
2022/04/04 04:52:33;;;;;;;14.20;6.37;;;3.30;99.90;;;;;;5060523;23;20595;-81
2022/04/04 04:55:00;;;;;;;12.23;5.67;;;3.30;99.90;;;;;;5035924;28;20425;-80
2022/04/04 04:57:26;;;;;;;9.57;5.53;;;3.40;99.90;;;;;;5035634;28;20504;-81
2022/04/04 04:59:52;;;;;;;11.23;6.23;;;3.50;99.90;;;;;;5036502;28;20413;-80
2022/04/04 05:02:18;;;;;;;9.40;5.80;;;3.50;99.90;;;;;;5036508;28;20789;-80
2022/04/04 05:04:43;;;;;;;9.27;6.17;;;3.60;99.90;;;;;;5036001;28;20174;-80
2022/04/04 05:07:09;;;;;;;9.80;5.67;;;3.60;99.90;;;;;;5035452;28;20183;-79
2022/04/04 05:09:35;;;;;;;10.53;5.23;;;3.60;99.90;;;;;;5036026;28;20163;-81
2022/04/04 05:12:01;;;;;;;10.17;6.00;;;3.70;99.90;;;;;;5035952;28;20213;-80
2022/04/04 05:14:26;;;;;;;9.90;5.10;;;3.70;99.90;;;;;;5036349;28;20422;-80
2022/04/04 05:16:53;;;;;;;8.73;6.07;;;3.70;99.90;;;;;;5035270;28;20472;-81
2022/04/04 05:19:22;;;;;;;9.07;5.70;;;3.70;99.90;;;;;;5035087;28;20183;-81
2022/04/04 05:21:48;;;;;;;9.77;5.40;;;3.80;99.90;;;;;;5035760;28;20966;-80
2022/04/04 05:24:14;;;;;;;9.83;5.63;;;3.80;99.90;;;;;;5034986;28;20413;-80
2022/04/04 05:26:40;;;;;;;7.60;4.60;;;3.90;99.90;;;;;;5035155;28;20431;-81
2022/04/04 05:29:05;;;;;;;12.53;5.70;;;3.90;99.90;;;;;;5035549;28;20417;-80
2022/04/04 05:31:32;;;;;;;7.83;4.77;;;4.00;99.90;;;;;;5033668;28;20395;-80
2022/04/04 05:33:58;;;;;;;8.03;5.03;;;4.00;99.90;;;;;;5034164;28;20700;-80
2022/04/04 05:36:25;;;;;;;8.40;5.13;;;4.00;99.90;;;;;;5031934;28;20515;-80
2022/04/04 05:38:51;;;;;;;8.87;4.50;;;4.10;99.90;;;;;;5033140;28;20994;-80
2022/04/04 05:41:20;;;;;;;7.03;3.97;;;4.10;99.90;;;;;;5033189;28;20415;-80
2022/04/04 05:43:47;;;;;;;7.67;4.53;;;4.20;99.90;;;;;;5033094;28;20525;-80
2022/04/04 05:46:13;;;;;;;7.87;5.00;;;4.20;99.90;;;;;;5033057;28;20461;-80
2022/04/04 05:48:39;;;;;;;8.97;5.50;;;4.20;99.90;;;;;;5032472;28;20461;-80
2022/04/04 05:51:05;;;;;;;8.47;4.80;;;4.20;99.90;;;;;;5033105;28;20423;-80
2022/04/04 05:53:30;;;;;;;7.53;4.40;;;4.30;99.90;;;;;;5031662;28;20252;-79
2022/04/04 05:55:56;;;;;;;7.20;5.07;;;4.30;99.90;;;;;;5032666;28;20209;-79
2022/04/04 05:58:21;;;;;;;6.83;4.07;;;4.40;99.90;;;;;;5031299;28;20185;-79
2022/04/04 06:00:48;;;;;;;6.33;4.50;;;4.40;99.90;;;;;;5032820;28;20181;-79
2022/04/04 06:03:14;;;;;;;8.03;5.00;;;4.50;99.90;;;;;;5032559;28;20680;-79
2022/04/04 06:05:40;;;;;;;8.57;4.20;;;4.50;99.90;;;;;;5032555;28;20426;-79
2022/04/04 06:08:06;;;;;;;5.97;4.57;;;4.60;99.90;;;;;;5031024;28;20180;-79
2022/04/04 06:10:31;;;;;;;7.03;4.73;;;4.60;99.90;;;;;;5032500;28;20422;-79
2022/04/04 06:12:57;;;;;;;8.93;4.03;;;4.60;99.90;;;;;;5032634;28;20206;-79
2022/04/04 06:15:22;;;;;;;6.10;4.50;;;4.60;99.90;;;;;;5031244;28;20262;-80
2022/04/04 06:17:48;;;;;;;8.73;4.40;;;4.60;99.90;;;;;;5031885;28;20203;-79
2022/04/04 06:20:14;;;;;;;7.73;5.20;;;4.70;99.90;;;;;;5032474;28;20176;-79
2022/04/04 06:22:41;;;;;;;8.13;4.30;;;4.70;99.90;;;;;;5031034;28;20226;-79
2022/04/04 06:25:08;;;;;;;9.40;6.13;;;4.80;99.90;;;;;;5032728;28;20494;-79
2022/04/04 06:27:34;;;;;;;6.70;4.30;;;4.80;99.90;;;;;;5031893;28;20419;-80
2022/04/04 06:30:00;;;;;;;6.13;4.47;;;4.90;99.90;;;;;;5032319;28;20994;-79
2022/04/04 06:32:26;;;;;;;10.17;5.93;;;4.90;99.90;;;;;;5032117;28;20439;-80
2022/04/04 06:34:52;;;;;;;6.47;3.17;;;4.80;99.90;;;;;;5032152;28;20588;-79
2022/04/04 06:37:18;;;;;;;6.70;4.27;;;4.80;99.90;;;;;;5032014;28;20458;-79
2022/04/04 06:39:44;;;;;;;6.50;4.43;;;4.70;99.90;;;;;;5032352;28;20176;-80
2022/04/04 06:42:09;;;;;;;10.87;4.53;;;4.80;99.90;;;;;;5031958;28;20570;-79
2022/04/04 06:44:35;;;;;;;7.30;4.03;;;4.80;99.90;;;;;;5032300;28;20650;-79
2022/04/04 06:47:00;;;;;;;6.20;4.00;;;4.80;99.90;;;;;;5031958;28;20176;-79
2022/04/04 06:49:27;;;;;;;7.70;3.80;;;4.70;99.90;;;;;;5030870;28;20183;-79
2022/04/04 06:51:52;;;;;;;5.97;4.07;;;4.70;99.90;;;;;;5030540;28;20220;-79
2022/04/04 06:54:19;;;;;;;8.00;3.87;;;4.80;99.90;;;;;;5032089;28;20958;-80
2022/04/04 06:56:46;;;;;;;6.60;3.60;;;4.90;99.90;;;;;;5031557;28;20228;-79
2022/04/04 06:59:13;;;;;;;5.20;3.93;;;5.00;99.90;;;;;;5031988;28;20418;-78
2022/04/04 07:01:38;;;;;;;10.30;3.73;;;5.20;99.90;;;;;;5031928;28;20497;-80
2022/04/04 07:04:04;;;;;;;5.87;3.60;;;5.30;99.90;;;;;;5031861;28;20411;-79
2022/04/04 07:06:30;;;;;;;8.80;5.53;;;5.50;99.90;;;;;;5030277;28;20271;-79
2022/04/04 07:08:56;;;;;;;5.57;4.00;;;5.60;99.90;;;;;;5031992;28;20670;-79
2022/04/04 07:11:22;;;;;;;6.70;3.97;;;5.70;99.90;;;;;;5027992;28;20808;-79
2022/04/04 07:13:49;;;;;;;5.67;3.73;;;5.90;99.90;;;;;;5031884;28;20415;-79
2022/04/04 07:16:15;;;;;;;5.07;3.70;;;6.10;99.90;;;;;;5031607;28;20225;-79
2022/04/04 07:18:41;;;;;;;5.53;3.97;;;6.30;99.90;;;;;;5031449;28;20895;-79
2022/04/04 07:21:07;;;;;;;9.10;5.30;;;6.50;99.90;;;;;;5031829;28;20450;-79
2022/04/04 07:23:33;;;;;;;7.13;4.20;;;6.80;99.90;;;;;;5031902;28;20186;-79
2022/04/04 07:25:58;;;;;;;7.27;4.57;;;6.90;99.90;;;;;;5031682;28;20189;-79
2022/04/04 07:28:24;;;;;;;5.10;3.10;;;7.00;99.90;;;;;;5028306;28;20515;-79
2022/04/04 07:30:52;;;;;;;5.43;3.60;;;7.10;99.90;;;;;;5029708;28;20211;-79
2022/04/04 07:33:18;;;;;;;4.83;3.47;;;7.10;99.90;;;;;;5031641;28;20191;-79
2022/04/04 07:35:45;;;;;;;7.30;3.60;;;7.10;99.90;;;;;;5031605;28;21002;-79
2022/04/04 07:38:11;;;;;;;6.37;3.97;;;7.30;99.90;;;;;;5030822;28;20420;-79
2022/04/04 07:40:37;;;;;;;5.73;3.40;;;7.40;99.90;;;;;;5032473;28;20421;-81
2022/04/04 07:43:03;;;;;;;4.67;3.40;;;7.50;99.90;;;;;;5035645;28;20955;-80
2022/04/04 07:45:31;;;;;;;4.50;3.27;;;7.70;99.90;;;;;;5035026;28;20399;-80
2022/04/04 07:47:57;;;;;;;4.70;3.40;;;7.90;99.90;;;;;;5032874;28;20216;-81
2022/04/04 07:50:23;;;;;;;3.63;2.63;;;8.00;99.90;;;;;;5027025;28;20447;-80
2022/04/04 07:52:50;;;;;;;5.77;2.97;;;8.30;99.90;;;;;;5036054;28;20488;-79
2022/04/04 07:55:15;;;;;;;5.10;3.00;;;8.40;99.90;;;;;;5022925;28;20239;-80
2022/04/04 07:57:42;;;;;;;3.87;2.80;;;8.50;99.90;;;;;;5016465;28;20463;-80
2022/04/04 08:00:10;;;;;;;5.60;3.60;;;8.30;99.90;;;;;;5033555;28;20266;-83
2022/04/04 08:02:35;;;;;;;4.67;2.70;;;8.20;99.90;;;;;;5035484;28;20442;-82
2022/04/04 08:05:04;;;;;;;4.20;3.13;;;8.20;99.90;;;;;;5035815;28;20414;-82
2022/04/04 08:07:30;;;;;;;4.23;3.20;;;8.20;99.90;;;;;;5033879;28;20429;-82
2022/04/04 08:09:55;;;;;;;5.33;4.17;;;8.40;99.90;;;;;;5035447;28;20422;-82
2022/04/04 08:12:25;;;;;;;5.83;3.80;;;8.30;99.90;;;;;;5035969;28;20204;-82
2022/04/04 08:14:51;;;;;;;5.27;3.40;;;8.40;99.90;;;;;;5034792;28;20518;-82
2022/04/04 08:17:17;;;;;;;6.47;4.50;;;8.40;99.90;;;;;;5032952;28;20545;-81
2022/04/04 08:19:43;;;;;;;4.37;3.20;;;8.30;99.90;;;;;;5033123;28;20208;-81
2022/04/04 08:22:09;;;;;;;6.17;3.63;;;8.30;99.90;;;;;;5035059;28;20949;-81
2022/04/04 08:24:34;;;;;;;5.17;3.53;;;8.20;99.90;;;;;;5034543;28;20544;-81
2022/04/04 08:27:00;;;;;;;5.50;3.40;;;8.20;99.90;;;;;;5035114;28;20944;-82
2022/04/04 08:29:25;;;;;;;5.00;3.37;;;8.40;99.90;;;;;;5035768;28;20621;-81
2022/04/04 08:31:51;;;;;;;4.70;3.07;;;8.50;99.90;;;;;;5034785;28;20294;-81
2022/04/04 08:34:16;;;;;;;4.20;2.73;;;8.50;99.90;;;;;;5035053;28;20180;-81
2022/04/04 08:36:42;;;;;;;5.03;3.50;;;8.50;99.90;;;;;;5034535;28;20200;-82
2022/04/04 08:39:07;;;;;;;6.67;2.93;;;8.50;99.90;;;;;;5035330;28;20230;-81
2022/04/04 08:41:35;;;;;;;4.73;3.07;;;8.50;99.90;;;;;;5034626;28;20200;-82
2022/04/04 08:44:02;;;;;;;7.90;2.70;;;8.70;99.90;;;;;;5033885;28;20180;-81
2022/04/04 08:46:29;;;;;;;5.17;3.27;;;8.70;99.90;;;;;;5032627;28;20918;-81
2022/04/04 08:48:58;;;;;;;5.90;2.97;;;8.70;99.90;;;;;;5033231;28;20457;-81
2022/04/04 08:51:25;;;;;;;4.53;2.63;;;8.70;99.90;;;;;;5034066;28;20446;-82
2022/04/04 08:53:51;;;;;;;4.20;2.80;;;8.60;99.90;;;;;;5033378;28;20496;-83
2022/04/04 08:56:17;;;;;;;3.63;2.63;;;8.60;99.90;;;;;;5034035;28;21156;-81
2022/04/04 08:58:43;;;;;;;4.80;3.10;;;8.60;99.90;;;;;;5031704;28;20176;-81
2022/04/04 09:01:09;;;;;;;7.77;3.00;;;8.60;99.90;;;;;;5032230;28;20422;-80
2022/04/04 09:03:34;;;;;;;4.47;2.87;;;8.70;99.90;;;;;;5032383;28;20283;-81
2022/04/04 09:06:04;;;;;;;5.10;2.80;;;8.70;99.90;;;;;;5033696;28;20184;-82
2022/04/04 09:08:41;;;;;;;4.87;3.03;;;8.70;99.90;;;;;;5032494;28;20184;-81
2022/04/04 09:11:07;;;;;;;4.43;2.90;;;9.00;99.90;;;;;;5032353;28;20420;-81
2022/04/04 09:13:32;;;;;;;6.40;3.87;;;9.20;99.90;;;;;;5036497;28;20411;-81
2022/04/04 09:16:05;;;;;;;4.83;2.87;;;9.20;99.90;;;;;;5035291;28;20655;-82
2022/04/04 09:18:37;;;;;;;5.30;3.10;;;9.20;99.90;;;;;;5034002;28;20176;-81
2022/04/04 09:21:06;;;;;;;7.80;3.57;;;9.20;99.90;;;;;;5034638;28;20438;-82
2022/04/04 09:23:49;;;;;;;6.97;3.77;;;9.10;99.90;;;;;;5050726;28;20418;-79
2022/04/04 09:26:36;;;;;;;6.93;3.47;;;9.10;99.90;;;;;;5027408;28;20438;-81
2022/04/04 09:29:07;;;;;;;5.47;2.97;;;9.20;99.90;;;;;;5027401;28;20961;-82
2022/04/04 09:31:33;;;;;;;4.20;2.80;;;9.10;99.90;;;;;;5029629;28;20454;-83
2022/04/04 09:34:01;;;;;;;6.30;3.27;;;9.00;99.90;;;;;;5032532;28;20836;-80
2022/04/04 09:36:27;;;;;;;5.60;3.50;;;9.10;99.90;;;;;;5020188;28;20208;-82
2022/04/04 09:39:04;;;;;;;4.20;3.20;;;9.20;99.90;;;;;;5015430;28;20486;-81
2022/04/04 09:41:30;;;;;;;5.33;3.40;;;9.30;99.90;;;;;;5015153;28;20223;-81
2022/04/04 09:43:58;;;;;;;6.90;3.10;;;9.30;99.90;;;;;;5014075;28;21147;-82
2022/04/04 09:46:29;;;;;;;4.17;2.63;;;9.30;99.90;;;;;;5014676;28;20427;-82
2022/04/04 09:49:15;;;;;;;4.10;3.07;;;9.30;99.90;;;;;;5014295;28;20419;-82
2022/04/04 09:51:42;;;;;;;4.50;3.40;;;9.00;99.90;;;;;;5013216;28;20510;-82
2022/04/04 09:54:14;;;;;;;4.13;3.07;;;8.90;99.90;;;;;;5013379;28;20981;-81
2022/04/04 09:56:40;;;;;;;5.27;3.13;;;8.90;99.90;;;;;;5014273;28;20463;-82
2022/04/04 09:59:06;;;;;;;5.77;3.23;;;9.00;99.90;;;;;;5011613;28;21030;-81
2022/04/04 10:01:33;;;;;;;7.90;3.63;;;9.10;99.90;;;;;;5012807;28;20430;-81
2022/04/04 10:04:01;;;;;;;7.27;3.70;;;9.20;99.90;;;;;;5013306;28;20204;-80
2022/04/04 10:06:31;;;;;;;4.63;2.90;;;9.30;99.90;;;;;;5018523;28;20805;-79
2022/04/04 10:09:00;;;;;;;7.30;3.30;;;9.40;99.90;;;;;;5020540;28;20416;-83
2022/04/04 10:11:27;;;;;;;4.93;3.00;;;9.50;99.90;;;;;;5049980;28;20449;-82
2022/04/04 10:13:54;;;;;;;7.00;3.60;;;9.40;99.90;;;;;;5052428;28;20501;-80
2022/04/04 10:16:23;;;;;;;6.60;3.40;;;9.10;99.90;;;;;;5040634;28;20993;-81
2022/04/04 10:18:51;;;;;;;6.10;4.20;;;8.90;99.90;;;;;;5034307;28;20434;-81
2022/04/04 10:21:18;;;;;;;4.77;3.13;;;8.90;99.90;;;;;;5034762;28;20426;-81
2022/04/04 10:23:44;;;;;;;6.30;3.87;;;8.80;99.90;;;;;;5035094;28;20411;-80
2022/04/04 10:26:14;;;;;;;4.07;3.33;;;8.60;99.90;;;;;;5036086;28;20411;-81
2022/04/04 10:28:41;;;;;;;6.07;3.37;;;8.70;99.90;;;;;;5029819;28;20442;-80
2022/04/04 10:31:13;;;;;;;6.00;3.67;;;8.80;99.90;;;;;;5035528;28;20419;-81
2022/04/04 10:33:39;;;;;;;8.20;4.60;;;8.70;99.90;;;;;;5031119;28;20422;-81
2022/04/04 10:36:07;;;;;;;5.60;3.60;;;8.70;99.90;;;;;;5032113;28;20478;-81
2022/04/04 10:38:34;;;;;;;10.47;4.70;;;8.70;99.90;;;;;;5030591;28;20181;-81
2022/04/04 10:41:08;;;;;;;6.23;4.20;;;8.80;99.90;;;;;;5030845;28;20423;-81
2022/04/04 10:43:38;;;;;;;6.03;4.17;;;8.80;99.90;;;;;;5033154;28;20917;-81
2022/04/04 10:46:12;;;;;;;6.90;3.53;;;8.90;99.90;;;;;;5033167;28;20399;-81
2022/04/04 10:48:46;;;;;;;5.33;3.60;;;8.80;99.90;;;;;;5025497;28;20484;-82
2022/04/04 10:51:20;;;;;;;6.63;4.23;;;8.80;99.90;;;;;;5032119;28;20400;-81
2022/04/04 10:53:53;;;;;;;6.80;3.80;;;8.70;99.90;;;;;;5032499;28;20418;-81
2022/04/04 10:56:19;;;;;;;6.40;3.37;;;8.80;99.90;;;;;;5023099;28;20474;-81
2022/04/04 10:58:46;;;;;;;7.70;3.43;;;8.90;99.90;;;;;;5019856;28;20447;-81
2022/04/04 11:01:21;;;;;;;8.23;4.00;;;9.00;99.90;;;;;;5027862;28;20438;-81
2022/04/04 11:03:52;;;;;;;6.37;3.40;;;9.00;99.90;;;;;;5024367;28;20418;-81
2022/04/04 11:09:11;;;;;;;4.07;3.10;;;9.00;99.90;;;;;;5011965;28;20394;-81
2022/04/04 11:11:52;;;;;;;6.03;3.70;;;8.90;99.90;;;;;;5011715;28;20436;-81
2022/04/04 11:14:46;;;;;;;5.07;3.43;;;8.80;99.90;;;;;;5011961;28;20419;-81
2022/04/04 11:17:13;;;;;;;5.40;3.20;;;8.90;99.90;;;;;;5030486;23;20490;-68
2022/04/04 11:19:50;;;;;;;5.07;3.60;;;8.90;99.90;;;;;;5009657;28;20435;-68
2022/04/04 11:22:18;;;;;;;5.50;3.83;;;8.80;99.90;;;;;;5011375;28;20525;-68
2022/04/04 11:24:51;;;;;;;5.07;3.30;;;8.60;99.90;;;;;;5009522;28;20422;-67
2022/04/04 11:27:18;;;;;;;7.87;4.53;;;8.50;99.90;;;;;;5017445;28;20411;-67
2022/04/04 11:29:44;;;;;;;8.90;4.97;;;8.40;99.90;;;;;;5017724;28;20407;-67
2022/04/04 11:32:16;;;;;;;5.23;3.90;;;8.20;99.90;;;;;;5017231;28;20446;-68
2022/04/04 11:34:43;;;;;;;5.77;3.80;;;7.90;99.90;;;;;;5017283;28;20221;-67
2022/04/04 11:37:18;;;;;;;7.67;4.57;;;7.50;99.90;;;;;;5017316;28;20469;-67
2022/04/04 11:39:48;;;;;;;20.43;5.07;;;7.30;99.90;;;;;;5017252;28;20433;-67
2022/04/04 11:42:14;;;;;;;7.20;4.70;;;7.10;99.90;;;;;;5017055;28;20437;-68
2022/04/04 11:44:48;;;;;;;7.27;4.10;;;7.00;99.90;;;;;;5017276;28;20440;-67
2022/04/04 11:47:15;;;;;;;8.20;4.90;;;7.00;99.90;;;;;;5016760;28;20836;-66
2022/04/04 11:49:44;;;;;;;5.97;3.90;;;7.00;99.90;;;;;;5015933;28;20544;-67
2022/04/04 11:52:16;;;;;;;6.40;3.63;;;7.00;99.90;;;;;;5006821;28;20751;-67
2022/04/04 11:54:43;;;;;;;8.27;4.40;;;6.90;99.90;;;;;;5007320;28;20445;-67
2022/04/04 11:57:10;;;;;;;9.90;5.30;;;6.90;99.90;;;;;;5013029;28;20876;-67
2022/04/04 11:59:40;;;;;;;8.77;5.43;;;6.80;99.90;;;;;;5008931;28;20519;-67
2022/04/04 12:02:09;;;;;;;8.13;3.93;;;6.70;99.90;;;;;;5009531;28;20459;-67
2022/04/04 12:04:40;;;;;;;7.30;5.50;;;6.70;99.90;;;;;;5008768;28;20535;-68
2022/04/04 12:07:07;;;;;;;8.80;4.90;;;6.60;99.90;;;;;;5016309;28;20430;-67
2022/04/04 12:09:37;;;;;;;7.30;5.00;;;6.60;99.90;;;;;;5012573;28;20447;-68
2022/04/04 12:12:08;;;;;;;7.40;4.63;;;6.50;99.90;;;;;;5008062;28;20459;-67
2022/04/04 12:14:39;;;;;;;7.93;5.63;;;6.50;99.90;;;;;;5016821;28;20425;-67
2022/04/04 12:17:06;;;;;;;6.57;5.87;;;6.40;99.90;;;;;;5016189;28;20463;-68
2022/04/04 12:19:39;;;;;;;6.67;5.17;;;6.40;99.90;;;;;;5013198;28;20430;-67
2022/04/04 12:24:55;;;;;;;9.40;6.13;;;6.30;99.90;;;;;;5012297;28;20446;-66
2022/04/04 12:24:55;;;;;;;7.90;6.00;;;6.20;99.90;;;;;;5034132;28;20903;-67
2022/04/04 12:27:21;;;;;;;10.40;5.40;;;6.10;99.90;;;;;;5034036;28;20419;-67
2022/04/04 12:29:47;;;;;;;9.67;6.17;;;6.00;99.90;;;;;;5016337;28;20431;-66
2022/04/04 12:32:20;;;;;;;9.90;6.40;;;5.90;99.90;;;;;;5016003;28;20435;-68
2022/04/04 12:35:02;;;;;;;8.10;5.97;;;5.90;99.90;;;;;;5015850;28;20451;-66
2022/04/04 12:37:42;;;;;;;7.20;5.60;;;5.80;99.90;;;;;;5016193;28;20829;-66
2022/04/04 12:40:26;;;;;;;9.47;7.30;;;5.80;99.90;;;;;;5015142;28;20466;-67
2022/04/04 12:43:05;;;;;;;9.73;6.80;;;5.80;99.90;;;;;;5015991;28;20470;-66
2022/04/04 12:45:31;;;;;;;9.37;5.77;;;5.80;99.90;;;;;;5006887;28;20440;-66
2022/04/04 12:47:57;;;;;;;8.90;6.33;;;5.60;99.90;;;;;;5015441;28;20826;-66
2022/04/04 12:50:25;;;;;;;9.27;6.23;;;5.60;99.90;;;;;;5013306;28;20451;-66
2022/04/04 12:53:01;;;;;;;8.23;6.03;;;5.60;99.90;;;;;;5010189;28;20180;-65
2022/04/04 12:55:28;;;;;;;7.57;5.30;;;5.50;99.90;;;;;;5015796;28;20411;-66
2022/04/04 12:57:55;;;;;;;9.50;6.40;;;5.50;99.90;;;;;;5015397;28;20833;-65
2022/04/04 13:00:38;;;;;;;7.43;5.77;;;5.40;99.90;;;;;;5015193;28;20444;-66
2022/04/04 13:03:23;;;;;;;9.67;6.10;;;5.40;99.90;;;;;;5015714;28;20415;-65